Nellis Air Force Base
KLSV : now visible

Airfield :











YOU CAN JOIN US ON...

 
LOGIN :

Register | Disclaimer

   EN    FR    IT 

 









Legend :    VFR   Marginal VFR   IFR   Intensive IFR   Very Intensive IFR
Visi :
Ceiling :
>= 8 km
>= 3000ft
5 to 8 km
1000 to 3000 ft
1500m to 5 km
500 to 1000 ft
800 to 1500m
200 to 500 ft
< 800m
< 200 ft
Symbols :   Thunderstorms  Fog  Heavy snow  Heavy precipitations  Wind > 20 kt






- Airport Elevation : 1870 ft


KLSV - Nellis Air Force Base

CURRENT METAR :
  • 271356Z 06014KT 10SM FEW250 09/M20 A3016 RMK AO2A SLPNO WND DATA ESTMD ALSTG/SLP ESTMD $

EXPIRED METARs :
  • 271158Z AUTO 05015KT 10SM CLR 10/M21 A3013 RMK AO2 SLP199 T01001215 10110 20054 55002 $

TAF AMD TAF KLSV
Valid from the 27 at 13:00 until the 28 at 13:00 UTC


271340Z 2713/2813 03012KT 9999 SKC QNH3010INS
TEMPO 2711/2715 06015G26KT 520009
BECMG 2714/2715 03015G20KT 9999 SKC 510009 QNH3019INS
TEMPO 2715/2719 02015G25KT 520009
BECMG 2718/2719 03012G20KT 9999 SKC 510009 QNH3007INS
BECMG 2802/2803 32010G15KT 9999 SKC QNH3011INS TX20/2723Z TN04/2713Z
KZLA FIR / North America



MET'MAP, your aeronautical weather chart ! - Copyright ORBIFLY December 2007 - Disclaimer

ORBIFLY MET'MAP TEAM :

Programming & Development : Alexandra Zaïnal
Concept & original design : Baudouin d'Aumeries
Assistance for programming : Marc-Olivier Méhu
Technical & hardware support : Manuel Goepfert

Contact : metmap@orbifly.com




SOURCES & CREDITS :

   NOAA       Earth
Advisory